Selah, Washington
Current Conditions -  °F | °C
As of 1:56 PM on Monday 22 Dec 2014 (Local Time) from K1YT Reporting Station
Scattered Clouds Scattered Clouds  
Wind Chill: 52°   Ceiling: Unl
Heat Index: 52°   Visibility: 10mi
Dew Point: 29°   Wind: 8mph
Humidity: 42%   Direction: 320°NW
Pressure: 30.29"   Gusts: NA
Location:  46.65°N, 120.53°W
Report Text: K1YT 222156Z AUTO 32007KT 10SM SCT130 11/M01 A3029 RMK AO2 SLPNO T01091015
Loading
Personal Weather Stations






























Interactive Weather Map New forecast layout! Learn more

10-Day Weather Forecast

Advertisements
Track Severe Weather on mobile